Time;durP1;ratioP1;P1;durP2;ratioP2;P2;SDS_P1;SDS_P2;PMS_P1;PMS_P2;Temp;Humidity;BMP_temperature;BMP_pressure;BME280_temperature;BME280_humidity;BME280_pressure;Samples;Min_cycle;Max_cycle;Signal;HPM_P1;HPM_P2
2022/08/23 00:01:53;;;;;;;2.63;1.50;;;17.30;57.20;;;;;;5069831;28;20048;-60
2022/08/23 00:04:24;;;;;;;2.22;1.63;;;17.20;56.80;;;;;;5070690;28;20092;-61
2022/08/23 00:06:53;;;;;;;2.08;1.35;;;17.10;56.90;;;;;;5058763;28;20033;-60
2022/08/23 00:09:20;;;;;;;5.88;1.60;;;17.10;56.60;;;;;;5060663;28;20070;-61
2022/08/23 00:11:53;;;;;;;2.45;1.58;;;17.10;56.70;;;;;;5052758;28;20057;-60
2022/08/23 00:14:26;;;;;;;5.20;1.60;;;17.10;57.20;;;;;;5059174;28;20035;-59
2022/08/23 00:16:53;;;;;;;3.08;1.50;;;17.00;57.10;;;;;;5058223;28;20048;-61
2022/08/23 00:19:21;;;;;;;3.53;1.80;;;17.00;57.10;;;;;;5065004;28;20029;-60
2022/08/23 00:21:49;;;;;;;3.40;1.75;;;17.00;57.20;;;;;;5058067;28;20057;-61
2022/08/23 00:24:16;;;;;;;3.85;1.60;;;17.00;57.40;;;;;;5062045;28;20453;-60
2022/08/23 00:27:00;;;;;;;4.72;1.80;;;16.90;57.20;;;;;;5069793;28;20028;-60
2022/08/23 00:29:33;;;;;;;2.20;1.60;;;16.90;58.20;;;;;;5061728;28;20029;-60
2022/08/23 00:31:59;;;;;;;3.28;1.45;;;16.90;57.60;;;;;;5064787;28;20635;-61
2022/08/23 00:34:26;;;;;;;3.28;1.70;;;16.90;57.80;;;;;;5063434;28;20040;-60
2022/08/23 00:36:51;;;;;;;3.28;1.88;;;16.90;57.40;;;;;;5071272;28;20048;-61
2022/08/23 00:39:19;;;;;;;2.88;1.70;;;16.80;57.60;;;;;;5059424;28;20101;-60
2022/08/23 00:41:46;;;;;;;3.63;1.83;;;16.80;57.70;;;;;;5054961;28;20793;-62
2022/08/23 00:50:15;;;;;;;2.05;1.40;;;16.70;57.50;;;;;;5065202;28;20048;-62
2022/08/23 00:52:51;;;;;;;2.97;1.88;;;16.70;57.90;;;;;;5051808;28;20101;-60
2022/08/23 00:55:18;;;;;;;4.15;2.00;;;16.70;57.90;;;;;;5052789;28;20149;-61
2022/08/23 00:57:44;;;;;;;3.15;1.48;;;16.70;58.50;;;;;;5080917;28;20025;-59
2022/08/23 01:00:11;;;;;;;2.25;1.58;;;16.60;57.90;;;;;;5059168;28;20086;-61
2022/08/23 01:02:37;;;;;;;3.75;1.45;;;16.60;57.80;;;;;;5083127;28;20033;-60
2022/08/23 01:05:05;;;;;;;6.72;1.63;;;16.60;58.00;;;;;;5046957;28;20025;-59
2022/08/23 01:07:44;;;;;;;5.45;1.58;;;16.60;58.20;;;;;;5061593;28;20029;-60
2022/08/23 01:10:21;;;;;;;3.20;1.75;;;16.60;59.10;;;;;;5063412;28;20438;-59
2022/08/23 01:12:54;;;;;;;7.38;1.58;;;16.60;58.50;;;;;;5042983;28;20029;-60
2022/08/23 01:15:31;;;;;;;1.50;1.40;;;16.60;58.60;;;;;;5048985;28;20119;-60
2022/08/23 01:18:09;;;;;;;3.15;1.40;;;16.50;58.40;;;;;;5046561;28;20033;-60
2022/08/23 01:20:50;;;;;;;3.42;1.45;;;16.50;58.80;;;;;;5044643;28;20029;-60
2022/08/23 01:23:49;;;;;;;2.85;1.38;;;16.50;58.50;;;;;;5050133;28;20669;-60
2022/08/23 01:26:17;;;;;;;7.60;1.77;;;16.40;59.30;;;;;;5061633;28;20050;-60
2022/08/23 01:28:44;;;;;;;2.70;1.40;;;16.40;58.20;;;;;;5068181;28;20029;-61
2022/08/23 01:31:13;;;;;;;2.08;1.35;;;16.40;58.40;;;;;;5069974;28;20040;-60
2022/08/23 01:33:40;;;;;;;14.35;1.38;;;16.30;58.50;;;;;;5073621;28;20018;-60
2022/08/23 01:36:08;;;;;;;1.73;1.33;;;16.30;58.50;;;;;;5045377;28;20071;-62
2022/08/23 01:38:34;;;;;;;2.72;1.52;;;16.30;58.70;;;;;;5062574;28;20045;-60
2022/08/23 01:41:00;;;;;;;2.28;1.30;;;16.30;58.90;;;;;;5077820;28;20113;-60
2022/08/23 01:43:25;;;;;;;1.85;1.20;;;16.30;58.80;;;;;;5063699;28;20075;-60
2022/08/23 01:45:51;;;;;;;4.30;1.55;;;16.20;58.80;;;;;;5082058;28;20041;-61
2022/08/23 01:48:18;;;;;;;2.28;1.63;;;16.20;58.80;;;;;;5056544;28;20036;-62
2022/08/23 01:50:45;;;;;;;3.90;1.70;;;16.20;58.90;;;;;;5042759;28;20074;-60
2022/08/23 01:53:12;;;;;;;3.17;1.67;;;16.10;58.90;;;;;;5061401;28;20025;-60
2022/08/23 01:55:41;;;;;;;4.68;1.58;;;16.10;59.10;;;;;;5064865;28;20053;-59
2022/08/23 01:58:07;;;;;;;2.67;1.55;;;16.10;59.30;;;;;;5047765;28;20037;-60
2022/08/23 02:00:39;;;;;;;3.08;1.60;;;16.10;58.90;;;;;;5069561;28;20025;-60
2022/08/23 02:03:06;;;;;;;2.55;1.33;;;16.10;59.20;;;;;;5059050;28;20025;-59
2022/08/23 02:05:33;;;;;;;2.58;1.80;;;16.00;59.00;;;;;;5082636;28;20092;-60
2022/08/23 02:08:59;;;;;;;2.60;1.60;;;16.00;59.00;;;;;;5060631;28;20029;-61
2022/08/23 02:10:44;;;;;;;2.30;1.65;;;16.00;59.10;;;;;;5076441;28;20057;-60
2022/08/23 02:13:11;;;;;;;2.65;1.60;;;15.90;59.10;;;;;;5050797;28;20044;-60
2022/08/23 02:15:38;;;;;;;3.00;1.52;;;15.90;59.20;;;;;;5082365;28;20040;-60
2022/08/23 02:18:05;;;;;;;4.20;1.40;;;15.90;59.40;;;;;;5055128;28;20030;-59
2022/08/23 02:20:30;;;;;;;7.50;1.60;;;15.80;59.40;;;;;;5070816;28;20043;-60
2022/08/23 02:22:56;;;;;;;3.22;1.83;;;15.80;59.60;;;;;;5049687;28;20053;-59
2022/08/23 02:25:22;;;;;;;2.70;1.73;;;15.80;59.60;;;;;;5063170;28;20040;-60
2022/08/23 02:27:47;;;;;;;2.38;1.70;;;15.80;59.80;;;;;;5061768;28;20032;-60
2022/08/23 02:30:13;;;;;;;3.15;1.70;;;15.80;59.60;;;;;;5048955;28;20048;-60
2022/08/23 02:32:39;;;;;;;1.83;1.50;;;15.80;59.60;;;;;;5065563;28;20053;-59
2022/08/23 02:35:05;;;;;;;2.70;1.77;;;15.70;59.70;;;;;;5067621;28;20036;-60
2022/08/23 02:37:30;;;;;;;3.20;1.63;;;15.70;59.90;;;;;;5072408;28;20080;-62
2022/08/23 02:39:56;;;;;;;4.50;1.92;;;15.70;60.10;;;;;;5061085;28;20057;-62
2022/08/23 02:42:22;;;;;;;2.20;1.75;;;15.60;60.30;;;;;;5057656;28;20056;-60
2022/08/23 02:44:47;;;;;;;3.67;1.73;;;15.60;60.20;;;;;;5058244;28;20034;-61
2022/08/23 02:47:13;;;;;;;3.80;1.88;;;15.60;60.40;;;;;;5061040;28;20034;-62
2022/08/23 02:49:39;;;;;;;2.22;1.35;;;15.60;60.30;;;;;;5067088;28;20025;-60
2022/08/23 02:52:05;;;;;;;4.13;1.50;;;15.60;60.40;;;;;;5064618;28;20120;-60
2022/08/23 02:54:32;;;;;;;5.20;1.75;;;15.60;60.40;;;;;;5061430;28;20475;-60
2022/08/23 02:56:58;;;;;;;2.17;1.33;;;15.60;60.40;;;;;;5065522;28;20029;-60
2022/08/23 02:59:24;;;;;;;5.95;1.80;;;15.60;60.50;;;;;;5062685;28;20021;-60
2022/08/23 03:01:50;;;;;;;2.55;1.70;;;15.50;60.40;;;;;;5082762;28;20024;-60
2022/08/23 03:04:16;;;;;;;10.10;1.65;;;15.50;60.40;;;;;;5074318;28;20056;-60
2022/08/23 03:06:42;;;;;;;5.05;1.65;;;15.50;60.50;;;;;;5085264;28;20039;-61
2022/08/23 03:09:08;;;;;;;2.47;1.80;;;15.50;60.60;;;;;;5075353;28;20033;-59
2022/08/23 03:11:34;;;;;;;4.03;2.28;;;15.50;60.70;;;;;;5085229;28;20084;-60
2022/08/23 03:14:00;;;;;;;2.42;1.98;;;15.50;60.80;;;;;;5057181;28;20511;-61
2022/08/23 03:16:27;;;;;;;4.40;1.77;;;15.50;60.80;;;;;;5067807;28;20033;-60
2022/08/23 03:18:53;;;;;;;2.65;1.80;;;15.40;60.80;;;;;;5059701;28;20036;-59
2022/08/23 03:21:19;;;;;;;4.30;1.77;;;15.40;60.70;;;;;;5085567;28;20033;-59
2022/08/23 03:23:45;;;;;;;2.20;1.65;;;15.40;60.70;;;;;;5064960;28;20029;-61
2022/08/23 03:26:13;;;;;;;5.90;1.83;;;15.40;60.80;;;;;;5084106;28;20058;-60
2022/08/23 03:28:40;;;;;;;3.15;1.98;;;15.40;60.90;;;;;;5059458;28;20052;-60
2022/08/23 03:31:08;;;;;;;2.55;1.75;;;15.40;61.10;;;;;;5078896;28;20045;-59
2022/08/23 03:33:34;;;;;;;4.93;2.10;;;15.40;61.10;;;;;;5054361;28;20032;-60
2022/08/23 03:36:01;;;;;;;4.57;1.67;;;15.40;61.00;;;;;;5084298;28;20032;-59
2022/08/23 03:38:27;;;;;;;2.20;1.35;;;15.40;61.40;;;;;;5063412;28;20513;-59
2022/08/23 03:40:53;;;;;;;2.35;1.50;;;15.40;61.20;;;;;;5059813;28;20056;-61
2022/08/23 03:43:19;;;;;;;1.75;1.30;;;15.30;61.20;;;;;;5066578;28;20036;-61
2022/08/23 03:45:46;;;;;;;2.28;1.70;;;15.30;61.20;;;;;;5066254;28;20025;-60
2022/08/23 03:48:11;;;;;;;2.25;1.52;;;15.30;61.40;;;;;;5084543;28;20051;-59
2022/08/23 03:50:37;;;;;;;2.42;1.60;;;15.30;61.40;;;;;;5065797;28;20022;-60
2022/08/23 03:53:04;;;;;;;2.40;1.48;;;15.30;61.40;;;;;;5083710;28;20111;-60
2022/08/23 03:55:30;;;;;;;1.80;1.50;;;15.20;61.50;;;;;;5063069;28;20037;-60
2022/08/23 03:57:56;;;;;;;2.67;1.35;;;15.30;61.50;;;;;;5075472;28;20029;-59
2022/08/23 04:00:22;;;;;;;4.38;1.20;;;15.20;61.40;;;;;;5064360;28;20064;-61
2022/08/23 04:02:48;;;;;;;5.47;1.73;;;15.20;61.30;;;;;;5097640;28;20020;-59
2022/08/23 04:05:14;;;;;;;4.13;1.40;;;15.20;61.40;;;;;;5066103;28;20132;-62
2022/08/23 04:07:39;;;;;;;3.42;1.83;;;15.10;61.50;;;;;;5084439;28;20483;-60
2022/08/23 04:10:07;;;;;;;2.35;1.58;;;15.10;61.30;;;;;;5049642;28;20076;-61
2022/08/23 04:12:33;;;;;;;3.97;1.50;;;15.10;61.60;;;;;;5075279;28;20388;-59
2022/08/23 04:14:59;;;;;;;4.40;1.42;;;15.10;61.70;;;;;;5058655;28;20033;-60
2022/08/23 04:17:25;;;;;;;1.88;1.45;;;15.00;61.80;;;;;;5083284;28;20039;-60
2022/08/23 04:19:50;;;;;;;2.75;1.60;;;15.00;61.90;;;;;;5062242;28;20025;-59
2022/08/23 04:22:18;;;;;;;1.48;1.30;;;15.00;62.00;;;;;;5083259;28;20032;-61
2022/08/23 04:24:44;;;;;;;3.30;1.65;;;14.90;62.00;;;;;;5063189;28;20021;-59
2022/08/23 04:27:11;;;;;;;3.55;1.40;;;15.00;62.10;;;;;;5081321;28;20055;-59
2022/08/23 04:29:38;;;;;;;2.80;1.60;;;14.90;62.00;;;;;;5076861;28;20037;-60
2022/08/23 04:32:06;;;;;;;2.95;1.70;;;15.20;62.40;;;;;;5046517;28;20103;-59
2022/08/23 04:34:33;;;;;;;2.78;1.42;;;14.90;62.30;;;;;;5066692;28;20053;-60
2022/08/23 04:37:00;;;;;;;2.08;1.52;;;14.90;62.40;;;;;;5043910;28;20034;-58
2022/08/23 04:39:26;;;;;;;1.30;1.08;;;14.90;62.50;;;;;;5057704;28;20029;-61
2022/08/23 04:44:36;;;;;;;;;;;14.90;62.40;;;;;;5073238;28;20051;-59
2022/08/23 04:47:02;;;;;;;1.85;1.20;;;15.00;62.30;;;;;;5046519;28;19913;-59
2022/08/23 04:49:28;;;;;;;2.85;1.55;;;14.90;61.70;;;;;;5067052;28;20059;-60
2022/08/23 04:51:54;;;;;;;2.88;1.58;;;14.90;62.00;;;;;;5082412;28;20044;-60
2022/08/23 04:54:20;;;;;;;3.47;1.75;;;14.90;62.20;;;;;;5054461;28;20033;-60
2022/08/23 04:56:46;;;;;;;2.28;1.45;;;14.90;62.10;;;;;;5061884;28;20033;-59
2022/08/23 04:59:11;;;;;;;2.33;1.40;;;14.90;62.30;;;;;;5044691;28;20037;-59
2022/08/23 05:01:38;;;;;;;2.50;1.42;;;14.90;62.50;;;;;;5082522;28;20093;-59
2022/08/23 05:04:04;;;;;;;3.28;1.30;;;14.90;62.70;;;;;;5051264;28;20116;-59
2022/08/23 05:06:30;;;;;;;2.20;1.55;;;14.90;63.00;;;;;;5083077;28;20040;-60
2022/08/23 05:08:56;;;;;;;2.50;1.20;;;14.90;63.00;;;;;;5054520;28;20029;-59
2022/08/23 05:11:23;;;;;;;3.25;1.58;;;15.00;63.00;;;;;;5082692;28;20033;-60
2022/08/23 05:13:49;;;;;;;3.10;1.65;;;15.00;62.90;;;;;;5063006;28;20029;-59
2022/08/23 05:16:16;;;;;;;2.80;1.63;;;15.10;63.00;;;;;;5083008;28;20592;-59
2022/08/23 05:18:42;;;;;;;3.55;1.85;;;15.20;63.10;;;;;;5051503;28;20064;-60
2022/08/23 05:21:12;;;;;;;3.58;1.77;;;15.20;63.00;;;;;;5073615;28;20033;-59
2022/08/23 05:23:37;;;;;;;4.22;1.60;;;15.30;63.00;;;;;;5062050;28;20045;-59
2022/08/23 05:26:03;;;;;;;3.42;1.90;;;15.40;63.00;;;;;;5052201;28;20541;-60
2022/08/23 05:28:33;;;;;;;3.33;1.60;;;15.50;63.00;;;;;;5066575;28;20041;-61
2022/08/23 05:31:11;;;;;;;19.77;1.70;;;15.60;63.30;;;;;;5067520;28;20057;-59
2022/08/23 05:33:39;;;;;;;4.32;1.40;;;15.70;63.60;;;;;;5056384;28;20067;-61
2022/08/23 05:36:06;;;;;;;1.95;1.70;;;15.80;62.90;;;;;;5052644;28;20058;-60
2022/08/23 05:38:33;;;;;;;5.38;1.70;;;15.90;62.90;;;;;;5065450;28;20056;-60
2022/08/23 05:41:00;;;;;;;11.75;1.80;;;16.00;62.80;;;;;;5062626;28;20021;-60
2022/08/23 05:43:27;;;;;;;9.38;2.00;;;16.10;62.60;;;;;;5057186;28;20179;-61
2022/08/23 05:46:12;;;;;;;5.18;1.70;;;16.20;62.30;;;;;;5061760;28;20083;-59
2022/08/23 05:48:39;;;;;;;3.63;2.00;;;16.30;62.90;;;;;;5082111;28;20029;-59
2022/08/23 05:51:20;;;;;;;3.38;1.83;;;16.40;62.00;;;;;;5042674;28;20088;-60
2022/08/23 05:53:48;;;;;;;5.05;1.80;;;16.50;62.20;;;;;;5047490;28;20053;-60
2022/08/23 05:56:19;;;;;;;5.15;2.08;;;16.50;61.60;;;;;;5069517;28;20079;-59
2022/08/23 05:58:45;;;;;;;8.65;1.95;;;16.60;61.60;;;;;;5044944;28;20040;-60
2022/08/23 06:01:11;;;;;;;5.68;2.13;;;16.70;61.60;;;;;;5056028;28;20033;-61
2022/08/23 06:03:37;;;;;;;5.50;2.10;;;16.80;61.60;;;;;;5062396;28;20029;-61
2022/08/23 06:06:04;;;;;;;6.30;2.10;;;17.00;61.60;;;;;;5074544;28;20051;-59
2022/08/23 06:08:30;;;;;;;6.10;2.58;;;17.10;61.50;;;;;;5071358;28;20036;-61
2022/08/23 06:11:08;;;;;;;6.68;2.20;;;17.20;61.40;;;;;;5061870;28;20467;-60
2022/08/23 06:13:40;;;;;;;8.07;2.25;;;17.30;61.30;;;;;;5059112;28;20031;-61
2022/08/23 06:16:09;;;;;;;9.27;2.33;;;17.40;60.80;;;;;;5065376;28;20082;-61
2022/08/23 06:18:34;;;;;;;4.80;2.22;;;17.60;60.70;;;;;;5078122;28;20028;-60
2022/08/23 06:21:06;;;;;;;9.98;2.00;;;17.70;60.70;;;;;;5067261;28;20044;-61
2022/08/23 06:23:33;;;;;;;7.80;2.53;;;17.80;60.50;;;;;;5070246;28;20090;-60
2022/08/23 06:26:00;;;;;;;5.20;2.03;;;17.90;60.10;;;;;;5056146;28;20040;-58
2022/08/23 06:28:28;;;;;;;4.78;1.77;;;18.10;60.10;;;;;;5058366;28;20021;-59
2022/08/23 06:30:55;;;;;;;7.82;2.72;;;18.20;59.80;;;;;;5068047;28;20057;-59
2022/08/23 06:33:21;;;;;;;5.93;1.92;;;18.30;60.20;;;;;;5060613;28;20032;-60
2022/08/23 06:35:49;;;;;;;7.40;1.85;;;18.50;59.60;;;;;;5063130;28;20096;-59
2022/08/23 06:38:16;;;;;;;7.70;2.17;;;18.50;59.30;;;;;;5062318;28;20029;-59
2022/08/23 06:40:42;;;;;;;6.55;2.20;;;18.70;59.80;;;;;;5062638;28;20040;-59
2022/08/23 06:43:08;;;;;;;4.13;2.40;;;18.80;59.00;;;;;;5078405;28;20021;-60
2022/08/23 06:45:33;;;;;;;6.15;2.10;;;18.90;58.90;;;;;;5068959;28;20093;-60
2022/08/23 06:47:59;;;;;;;5.28;2.22;;;19.10;58.90;;;;;;5088001;28;20033;-60
2022/08/23 06:50:25;;;;;;;11.32;2.85;;;19.20;58.90;;;;;;5068231;28;20032;-59
2022/08/23 06:52:51;;;;;;;6.03;3.05;;;19.40;58.80;;;;;;5064466;28;20025;-61
2022/08/23 06:55:17;;;;;;;6.82;2.50;;;19.50;58.60;;;;;;5066588;28;20029;-59
2022/08/23 06:57:43;;;;;;;8.05;2.90;;;19.70;58.60;;;;;;5068604;28;20869;-60
2022/08/23 07:00:10;;;;;;;10.52;2.67;;;19.80;58.30;;;;;;5074159;28;20035;-60
2022/08/23 07:02:36;;;;;;;10.73;3.20;;;19.90;58.00;;;;;;5075786;28;20029;-61
2022/08/23 07:05:03;;;;;;;5.22;3.00;;;20.00;57.80;;;;;;5063561;28;20037;-59
2022/08/23 07:07:29;;;;;;;7.00;3.13;;;20.10;57.60;;;;;;5059979;28;20097;-59
2022/08/23 07:09:55;;;;;;;10.55;3.55;;;20.20;57.40;;;;;;5072750;28;20047;-61
2022/08/23 07:12:21;;;;;;;4.50;3.10;;;20.30;57.10;;;;;;5059782;28;20030;-61
2022/08/23 07:14:48;;;;;;;6.57;3.75;;;20.40;57.20;;;;;;5064173;28;20035;-60
2022/08/23 07:17:14;;;;;;;5.85;3.65;;;20.50;57.10;;;;;;5074676;28;20032;-60
2022/08/23 07:19:42;;;;;;;6.20;3.33;;;20.60;56.80;;;;;;5073611;28;20107;-60
2022/08/23 07:22:09;;;;;;;11.07;3.72;;;20.80;56.60;;;;;;5065817;28;20416;-60
2022/08/23 07:24:36;;;;;;;6.07;3.58;;;20.90;56.10;;;;;;5074134;28;20024;-61
2022/08/23 07:27:08;;;;;;;3.70;2.95;;;21.10;56.00;;;;;;5084881;28;20052;-60
2022/08/23 07:29:36;;;;;;;6.47;3.78;;;21.20;55.50;;;;;;5049467;28;20025;-60
2022/08/23 07:32:02;;;;;;;4.82;2.95;;;21.30;55.30;;;;;;5059430;28;20420;-60
2022/08/23 07:34:28;;;;;;;6.60;2.97;;;21.50;55.00;;;;;;5075601;28;20503;-60
2022/08/23 07:36:54;;;;;;;6.18;3.03;;;21.60;54.60;;;;;;5084296;28;20037;-59
2022/08/23 07:39:21;;;;;;;4.35;2.60;;;21.70;54.60;;;;;;5064982;28;20088;-61
2022/08/23 07:41:47;;;;;;;8.98;3.30;;;21.80;54.50;;;;;;5073649;28;20037;-60
2022/08/23 07:44:13;;;;;;;7.57;2.60;;;21.90;54.10;;;;;;5055521;28;20495;-60
2022/08/23 07:46:42;;;;;;;6.72;2.75;;;22.00;53.70;;;;;;5061125;28;20045;-60
2022/08/23 07:49:11;;;;;;;8.80;2.70;;;22.10;53.90;;;;;;5077840;28;20167;-59
2022/08/23 07:51:39;;;;;;;4.97;2.42;;;22.20;53.30;;;;;;5065253;28;20047;-59
2022/08/23 07:54:08;;;;;;;8.60;3.20;;;22.30;53.20;;;;;;5083714;28;20031;-61
2022/08/23 07:56:34;;;;;;;12.77;2.90;;;22.40;52.50;;;;;;5083929;28;20040;-61
2022/08/23 07:59:00;;;;;;;7.55;3.00;;;22.50;52.30;;;;;;5083148;28;20028;-60
2022/08/23 08:01:28;;;;;;;3.72;2.28;;;22.60;52.30;;;;;;5047872;28;20058;-59
2022/08/23 08:03:55;;;;;;;4.45;2.33;;;22.70;52.30;;;;;;5084640;28;20029;-61
2022/08/23 08:06:28;;;;;;;11.20;2.45;;;22.80;52.20;;;;;;5060135;28;20863;-60
2022/08/23 08:08:53;;;;;;;6.68;2.45;;;22.90;52.10;;;;;;5062835;28;20037;-60
2022/08/23 08:11:21;;;;;;;7.00;2.22;;;23.00;52.00;;;;;;5047040;28;20081;-60
2022/08/23 08:13:48;;;;;;;9.05;2.60;;;23.10;52.00;;;;;;5073200;28;20029;-59
2022/08/23 08:16:27;;;;;;;11.77;2.55;;;23.20;52.10;;;;;;5060462;28;20029;-60
2022/08/23 08:18:56;;;;;;;7.55;3.05;;;23.30;51.20;;;;;;5084333;28;20059;-59
2022/08/23 08:21:22;;;;;;;6.22;2.38;;;23.50;51.00;;;;;;5064038;28;20036;-60
2022/08/23 08:23:48;;;;;;;7.70;2.20;;;23.70;51.10;;;;;;5080472;28;20106;-60
2022/08/23 08:26:15;;;;;;;10.95;2.78;;;23.80;51.10;;;;;;5065964;28;20029;-60
2022/08/23 08:28:40;;;;;;;9.95;2.35;;;23.90;50.90;;;;;;5084336;28;20043;-60
2022/08/23 08:31:07;;;;;;;26.10;2.50;;;24.10;50.50;;;;;;5061976;28;20052;-60
2022/08/23 08:33:33;;;;;;;9.10;1.90;;;24.20;49.90;;;;;;5084671;28;20444;-60
2022/08/23 08:35:59;;;;;;;5.18;2.25;;;24.30;49.80;;;;;;5063988;28;20045;-61
2022/08/23 08:38:25;;;;;;;16.55;1.98;;;24.40;49.60;;;;;;5083721;28;20032;-61
2022/08/23 08:41:18;;;;;;;10.82;2.42;;;24.50;49.30;;;;;;5049296;28;20033;-60
2022/08/23 08:44:01;;;;;;;13.70;2.13;;;24.60;48.40;;;;;;5069044;28;20100;-61
2022/08/23 08:46:44;;;;;;;6.32;1.60;;;24.70;48.90;;;;;;5047775;28;20013;-60
2022/08/23 08:49:15;;;;;;;4.07;1.67;;;24.90;48.20;;;;;;5045931;28;20025;-61
2022/08/23 08:51:54;;;;;;;16.45;1.67;;;25.00;47.80;;;;;;5044050;28;20451;-61
2022/08/23 08:54:25;;;;;;;6.63;1.75;;;25.10;47.00;;;;;;5043708;28;20628;-62
2022/08/23 08:56:53;;;;;;;4.90;1.90;;;25.20;46.70;;;;;;5043951;28;20037;-62
2022/08/23 08:59:23;;;;;;;6.05;2.30;;;25.20;47.10;;;;;;5060133;28;20353;-61
2022/08/23 09:01:49;;;;;;;5.53;1.80;;;25.30;46.50;;;;;;5069158;28;20040;-60
2022/08/23 09:04:15;;;;;;;3.08;1.52;;;25.30;46.80;;;;;;5057645;28;20084;-60
2022/08/23 09:06:59;;;;;;;5.25;1.60;;;25.30;46.80;;;;;;5058891;28;20078;-61
2022/08/23 09:09:33;;;;;;;;;;;25.40;46.90;;;;;;5057020;28;20025;-60
2022/08/23 09:12:04;;;;;;;3.90;1.63;;;25.50;47.30;;;;;;5067481;28;19971;-62
2022/08/23 09:15:12;;;;;;;10.80;1.98;;;25.60;46.30;;;;;;5058790;28;20033;-61
2022/08/23 09:17:48;;;;;;;4.10;1.60;;;25.70;45.50;;;;;;5061231;28;20028;-61
2022/08/23 09:20:18;;;;;;;3.20;1.40;;;25.80;46.10;;;;;;5069001;28;20025;-62
2022/08/23 09:22:46;;;;;;;5.10;1.70;;;25.90;46.10;;;;;;5058764;28;20034;-60
2022/08/23 09:25:15;;;;;;;5.45;1.83;;;26.00;46.00;;;;;;5069570;28;20052;-60
2022/08/23 09:27:44;;;;;;;4.10;1.45;;;26.00;46.20;;;;;;5059586;28;20032;-61
2022/08/23 09:30:15;;;;;;;6.18;1.60;;;26.20;46.30;;;;;;5064519;28;20146;-61
2022/08/23 09:32:43;;;;;;;10.48;1.88;;;26.30;46.10;;;;;;5059574;28;20049;-60
2022/08/23 09:35:24;;;;;;;6.85;1.40;;;26.40;45.90;;;;;;5059108;28;20056;-61
2022/08/23 09:37:57;;;;;;;2.78;1.58;;;26.60;45.10;;;;;;5054413;28;20462;-60
2022/08/23 09:40:30;;;;;;;10.98;1.70;;;26.70;44.70;;;;;;5059646;28;20029;-60
2022/08/23 09:43:11;;;;;;;4.83;1.60;;;26.90;44.50;;;;;;5077282;28;20414;-60
2022/08/23 09:45:41;;;;;;;5.38;1.50;;;27.00;43.70;;;;;;5062475;28;20025;-60
2022/08/23 09:48:12;;;;;;;5.28;1.65;;;27.10;44.50;;;;;;5072755;28;20060;-59
2022/08/23 09:50:44;;;;;;;5.25;1.63;;;27.20;44.90;;;;;;5068408;28;20044;-60
2022/08/23 09:53:12;;;;;;;3.35;1.55;;;27.30;43.70;;;;;;5060127;28;20025;-60
2022/08/23 09:55:41;;;;;;;4.30;1.65;;;27.40;43.20;;;;;;5061724;28;20060;-63
2022/08/23 09:58:31;;;;;;;2.85;1.58;;;27.50;43.90;;;;;;5068012;28;20505;-61
2022/08/23 10:01:17;;;;;;;4.30;1.60;;;27.50;42.90;;;;;;5073660;28;20066;-61
2022/08/23 10:03:43;;;;;;;3.92;1.70;;;27.70;43.00;;;;;;5049149;28;20037;-61
2022/08/23 10:06:14;;;;;;;10.82;1.60;;;27.80;43.30;;;;;;5071854;28;20067;-61
2022/08/23 10:08:55;;;;;;;4.97;1.52;;;27.90;42.90;;;;;;5047051;28;20045;-60
2022/08/23 10:11:29;;;;;;;2.85;1.50;;;28.00;42.10;;;;;;5061128;28;20033;-61
2022/08/23 10:13:55;;;;;;;3.67;1.27;;;28.10;42.00;;;;;;5064069;28;20025;-60
2022/08/23 10:16:45;;;;;;;3.13;1.33;;;28.20;42.40;;;;;;5053599;28;20045;-61
2022/08/23 10:19:35;;;;;;;4.10;1.48;;;28.20;41.80;;;;;;5048304;28;20029;-60
2022/08/23 10:22:25;;;;;;;2.40;1.25;;;28.40;42.60;;;;;;5046984;28;20029;-62
2022/08/23 10:24:53;;;;;;;5.10;1.10;;;28.50;41.80;;;;;;5053736;28;20483;-60
2022/08/23 10:30:31;;;;;;;2.47;1.35;;;28.60;41.20;;;;;;5057929;28;20047;-61
2022/08/23 10:33:00;;;;;;;2.53;1.10;;;28.70;41.00;;;;;;5059785;28;20128;-61
2022/08/23 10:35:46;;;;;;;2.22;1.30;;;28.80;41.20;;;;;;5078846;28;20123;-61
2022/08/23 10:38:18;;;;;;;3.83;1.13;;;28.80;40.90;;;;;;5065880;28;20043;-60
2022/08/23 10:40:47;;;;;;;3.75;1.30;;;28.90;40.70;;;;;;5058251;28;20021;-61
2022/08/23 10:43:31;;;;;;;11.40;1.30;;;29.00;40.00;;;;;;5066052;28;20082;-61
2022/08/23 10:46:00;;;;;;;5.95;1.10;;;29.00;39.20;;;;;;5054749;28;20029;-60
2022/08/23 10:48:52;;;;;;;3.85;1.15;;;29.00;39.30;;;;;;5063712;28;20033;-61
2022/08/23 10:51:29;;;;;;;2.65;1.00;;;29.10;39.20;;;;;;4978409;28;20099;-61
2022/08/23 10:54:00;;;;;;;4.07;1.30;;;29.10;39.40;;;;;;5051434;28;20081;-60
2022/08/23 10:56:27;;;;;;;3.88;1.10;;;29.10;39.40;;;;;;5054631;28;20033;-60
2022/08/23 10:59:06;;;;;;;2.05;1.10;;;29.20;39.10;;;;;;5084803;28;20036;-60
2022/08/23 11:02:06;;;;;;;7.07;1.60;;;29.30;39.50;;;;;;5044286;28;20042;-60
2022/08/23 11:04:51;;;;;;;2.00;1.05;;;29.40;38.40;;;;;;5069108;28;20029;-61
2022/08/23 11:07:28;;;;;;;3.30;1.25;;;29.40;38.10;;;;;;5063828;28;20033;-62
2022/08/23 11:10:15;;;;;;;2.50;1.25;;;29.50;38.70;;;;;;5047481;28;20034;-60
2022/08/23 11:13:16;;;;;;;3.13;1.38;;;29.40;38.10;;;;;;5085390;28;20029;-60
2022/08/23 11:15:47;;;;;;;6.95;1.30;;;29.40;37.20;;;;;;5058266;28;20045;-61
2022/08/23 11:18:25;;;;;;;1.98;1.15;;;29.40;37.20;;;;;;5064558;28;20092;-60
2022/08/23 11:20:54;;;;;;;2.50;1.33;;;29.50;37.00;;;;;;5071331;28;20021;-61
2022/08/23 11:23:45;;;;;;;4.28;1.52;;;29.60;38.50;;;;;;5049412;28;20021;-61
2022/08/23 11:26:26;;;;;;;6.38;1.23;;;29.70;39.40;;;;;;5072098;28;20037;-61
2022/08/23 11:29:23;;;;;;;4.07;1.88;;;29.80;38.90;;;;;;5075900;28;20025;-60
2022/08/23 11:32:18;;;;;;;3.30;1.23;;;30.00;38.50;;;;;;5059588;28;20037;-60
2022/08/23 11:35:03;;;;;;;4.63;1.42;;;30.10;38.80;;;;;;5052854;28;20017;-59
2022/08/23 11:37:55;;;;;;;1.65;1.08;;;30.20;37.90;;;;;;5046973;28;20537;-59
2022/08/23 11:40:49;;;;;;;4.22;1.50;;;30.30;38.10;;;;;;5048151;28;20380;-61
2022/08/23 11:43:37;;;;;;;2.63;1.48;;;30.40;37.80;;;;;;5045771;28;20029;-61
2022/08/23 11:46:22;;;;;;;13.07;1.48;;;30.50;36.30;;;;;;5058749;28;20036;-60
2022/08/23 11:49:03;;;;;;;2.97;1.35;;;30.60;36.60;;;;;;5065465;28;20025;-60
2022/08/23 11:52:01;;;;;;;4.53;1.38;;;30.60;36.40;;;;;;5060525;28;20059;-60
2022/08/23 11:54:34;;;;;;;16.55;2.42;;;30.70;37.70;;;;;;5050167;28;20049;-61
2022/08/23 11:57:24;;;;;;;3.70;1.38;;;30.80;36.90;;;;;;5061477;28;20037;-61
2022/08/23 11:59:59;;;;;;;2.30;1.30;;;30.90;36.60;;;;;;5057957;28;20052;-61
2022/08/23 12:02:37;;;;;;;5.28;1.75;;;31.00;36.60;;;;;;5069348;28;20067;-60
2022/08/23 12:05:40;;;;;;;2.65;1.10;;;31.10;37.60;;;;;;5062883;28;20050;-60
2022/08/23 12:08:06;;;;;;;2.22;1.10;;;31.20;36.70;;;;;;5044505;28;20035;-61
2022/08/23 12:10:41;;;;;;;2.78;1.20;;;31.30;37.10;;;;;;5057557;28;20059;-61
2022/08/23 12:13:19;;;;;;;2.00;1.20;;;31.30;36.20;;;;;;5064126;28;20375;-60
2022/08/23 12:16:03;;;;;;;10.50;1.20;;;31.40;36.60;;;;;;5056329;28;20037;-62
2022/08/23 12:18:35;;;;;;;9.00;1.33;;;31.50;36.60;;;;;;5082360;28;20041;-61
2022/08/23 12:21:04;;;;;;;1.75;1.02;;;31.60;36.60;;;;;;5059549;28;20050;-60
2022/08/23 12:23:41;;;;;;;2.00;1.20;;;31.70;35.70;;;;;;5084491;28;20093;-61
2022/08/23 12:26:21;;;;;;;2.65;1.20;;;31.70;36.00;;;;;;5068273;28;20029;-60
2022/08/23 12:28:51;;;;;;;2.55;1.30;;;31.80;34.90;;;;;;5045123;28;20041;-60
2022/08/23 12:31:22;;;;;;;2.50;1.00;;;31.90;35.40;;;;;;5072283;28;20060;-60
2022/08/23 12:34:08;;;;;;;3.25;1.30;;;32.00;35.90;;;;;;5081969;28;20037;-61
2022/08/23 12:36:55;;;;;;;2.20;1.17;;;32.00;35.00;;;;;;5055843;28;20044;-61
2022/08/23 12:39:27;;;;;;;3.83;1.40;;;32.20;35.00;;;;;;5060792;28;20549;-61
2022/08/23 12:42:14;;;;;;;2.28;1.05;;;32.30;34.10;;;;;;5054525;28;20064;-61
2022/08/23 12:44:42;;;;;;;2.67;1.25;;;32.40;34.60;;;;;;5063900;28;20411;-62
2022/08/23 12:47:13;;;;;;;3.38;1.38;;;32.40;34.70;;;;;;5055893;28;20426;-60
2022/08/23 12:49:39;;;;;;;2.75;1.15;;;32.50;35.20;;;;;;5053770;28;20025;-62
2022/08/23 12:52:10;;;;;;;2.28;1.00;;;32.60;34.80;;;;;;5052554;28;20057;-61
2022/08/23 12:54:38;;;;;;;3.85;1.05;;;32.70;34.40;;;;;;5044008;28;20069;-62
2022/08/23 12:57:10;;;;;;;6.68;1.17;;;32.70;33.30;;;;;;5047785;28;20068;-62
2022/08/23 12:59:57;;;;;;;7.78;1.20;;;32.60;32.80;;;;;;5051108;28;20021;-60
2022/08/23 13:02:28;;;;;;;3.72;1.10;;;32.50;32.30;;;;;;5061728;28;20063;-60
2022/08/23 13:05:01;;;;;;;1.80;0.98;;;32.30;32.40;;;;;;5050025;28;20055;-61
2022/08/23 13:07:27;;;;;;;2.30;0.98;;;32.20;33.90;;;;;;5060846;28;20040;-61
2022/08/23 13:09:55;;;;;;;3.30;1.42;;;32.10;33.60;;;;;;5082933;28;20041;-60
2022/08/23 13:12:21;;;;;;;2.13;1.33;;;32.10;33.30;;;;;;5054598;28;20037;-61
2022/08/23 13:14:52;;;;;;;8.13;1.15;;;32.20;33.50;;;;;;5074070;28;20056;-60
2022/08/23 13:17:30;;;;;;;4.05;1.50;;;32.30;33.50;;;;;;5057008;28;20153;-61